AQQ10 IFIS: Internet Flight Information System
logo dgac
Miércoles 28 de Febrero del 2024
Buscar por aerodromo o helipuerto
Ingrese nombre de aeródromo, localidad o designador OACI:
METAR del 28-02-2024 a las 00:00 UTC
Para mayor información visite www.meteochile.gob.cl
METAR SCSE 280000Z 26006KT 9999 BKN016 18/15 Q1013
Viento: dirección 260 grados, velocidad 6 nudos
Visibilidad: 10 km o más
Nubes: Nublado a 1600 pies sobre el nivel del aeródromo
Temperatura: 18 °C
Rocío: 15 °C
Humedad_relativa: 83%
Presión: 1013 hPa
METAR del 27-02-2024 a las 23:00 UTC
Para mayor información visite www.meteochile.gob.cl
METAR SCSE 272300Z 27009KT 9999 FEW016 19/15 Q1012
Viento: dirección 270 grados, velocidad 9 nudos
Visibilidad: 10 km o más
Nubes: Escasa nubosidad a 1600 pies sobre el nivel del aeródromo
Temperatura: 19 °C
Rocío: 15 °C
Humedad_relativa: 78%
Presión: 1012 hPa
METAR del 27-02-2024 a las 22:00 UTC
Para mayor información visite www.meteochile.gob.cl
METAR SCSE 272200Z 27010KT 9999 FEW020 20/15 Q1012
Viento: dirección 270 grados, velocidad 10 nudos
Visibilidad: 10 km o más
Nubes: Escasa nubosidad a 2000 pies sobre el nivel del aeródromo
Temperatura: 20 °C
Rocío: 15 °C
Humedad_relativa: 73%
Presión: 1012 hPa
METAR del 27-02-2024 a las 21:00 UTC
Para mayor información visite www.meteochile.gob.cl
METAR SCSE 272100Z 28008KT 250V320 9999 FEW023 21/15 Q1013
Viento: dirección 280 grados, velocidad 8 nudos
Viento con dirección variable entre 250 y 320 grados
Visibilidad: 10 km o más
Nubes: Escasa nubosidad a 2300 pies sobre el nivel del aeródromo
Temperatura: 21 °C
Rocío: 15 °C
Humedad_relativa: 69%
Presión: 1013 hPa
METAR del 27-02-2024 a las 20:00 UTC
Para mayor información visite www.meteochile.gob.cl
METAR SCSE 272000Z 27010KT 9999 BKN025 21/15 Q1013
Viento: dirección 270 grados, velocidad 10 nudos
Visibilidad: 10 km o más
Nubes: Nublado a 2500 pies sobre el nivel del aeródromo
Temperatura: 21 °C
Rocío: 15 °C
Humedad_relativa: 69%
Presión: 1013 hPa
METAR del 27-02-2024 a las 19:00 UTC
Para mayor información visite www.meteochile.gob.cl
METAR SCSE 271900Z 27011KT 240V300 9999 SCT018 BKN025 21/15 Q1014
Viento: dirección 270 grados, velocidad 11 nudos
Viento con dirección variable entre 240 y 300 grados
Visibilidad: 10 km o más
Nubes: Nubosidad parcial a 1800 pies sobre el nivel del aeródromo
Nubes: Nublado a 2500 pies sobre el nivel del aeródromo
Temperatura: 21 °C
Rocío: 15 °C
Humedad_relativa: 69%
Presión: 1014 hPa
METAR del 27-02-2024 a las 18:00 UTC
Para mayor información visite www.meteochile.gob.cl
METAR SCSE 271800Z 27009KT 230V300 9999 SCT018 BKN022 21/15 Q1015
Viento: dirección 270 grados, velocidad 9 nudos
Viento con dirección variable entre 230 y 300 grados
Visibilidad: 10 km o más
Nubes: Nubosidad parcial a 1800 pies sobre el nivel del aeródromo
Nubes: Nublado a 2200 pies sobre el nivel del aeródromo
Temperatura: 21 °C
Rocío: 15 °C
Humedad_relativa: 69%
Presión: 1015 hPa
METAR del 27-02-2024 a las 17:00 UTC
Para mayor información visite www.meteochile.gob.cl
METAR SCSE 271700Z 27008KT 9999 SCT015 BKN020 20/15 Q1015
Viento: dirección 270 grados, velocidad 8 nudos
Visibilidad: 10 km o más
Nubes: Nubosidad parcial a 1500 pies sobre el nivel del aeródromo
Nubes: Nublado a 2000 pies sobre el nivel del aeródromo
Temperatura: 20 °C
Rocío: 15 °C
Humedad_relativa: 73%
Presión: 1015 hPa
METAR del 27-02-2024 a las 16:00 UTC
Para mayor información visite www.meteochile.gob.cl
METAR SCSE 271600Z 26008KT 9999 SCT012 BKN014 OVC018 19/15 Q1016
Viento: dirección 260 grados, velocidad 8 nudos
Visibilidad: 10 km o más
Nubes: Nubosidad parcial a 1200 pies sobre el nivel del aeródromo
Nubes: Nublado a 1400 pies sobre el nivel del aeródromo
Nubes: Cubierto a 1800 pies sobre el nivel del aeródromo
Temperatura: 19 °C
Rocío: 15 °C
Humedad_relativa: 78%
Presión: 1016 hPa
METAR del 27-02-2024 a las 15:00 UTC
Para mayor información visite www.meteochile.gob.cl
METAR SCSE 271500Z 23005KT 200V260 9999 SCT012 OVC014 19/16 Q1016
Viento: dirección 230 grados, velocidad 5 nudos
Viento con dirección variable entre 200 y 260 grados
Visibilidad: 10 km o más
Nubes: Nubosidad parcial a 1200 pies sobre el nivel del aeródromo
Nubes: Cubierto a 1400 pies sobre el nivel del aeródromo
Temperatura: 19 °C
Rocío: 16 °C
Humedad_relativa: 83%
Presión: 1016 hPa